sensor_id;sensor_type;location;lat;lon;timestamp;temperature;humidity
52211;DHT22;38179;52.756;6.906;2023-01-15T00:01:04;6.20;99.90
52211;DHT22;38179;52.756;6.906;2023-01-15T00:03:30;6.20;99.90
52211;DHT22;38179;52.756;6.906;2023-01-15T00:06:03;6.20;99.90
52211;DHT22;38179;52.756;6.906;2023-01-15T00:08:29;6.20;99.90
52211;DHT22;38179;52.756;6.906;2023-01-15T00:10:55;6.30;99.90
52211;DHT22;38179;52.756;6.906;2023-01-15T00:13:21;6.20;99.90
52211;DHT22;38179;52.756;6.906;2023-01-15T00:15:46;6.30;99.90
52211;DHT22;38179;52.756;6.906;2023-01-15T00:18:12;6.20;99.90
52211;DHT22;38179;52.756;6.906;2023-01-15T00:20:38;6.20;99.90
52211;DHT22;38179;52.756;6.906;2023-01-15T00:23:04;6.20;99.90
52211;DHT22;38179;52.756;6.906;2023-01-15T00:25:30;6.30;99.90
52211;DHT22;38179;52.756;6.906;2023-01-15T00:28:15;6.30;99.90
52211;DHT22;38179;52.756;6.906;2023-01-15T00:30:41;6.30;99.90
52211;DHT22;38179;52.756;6.906;2023-01-15T00:33:08;6.30;99.90
52211;DHT22;38179;52.756;6.906;2023-01-15T00:35:34;6.30;99.90
52211;DHT22;38179;52.756;6.906;2023-01-15T00:38:00;6.30;99.90
52211;DHT22;38179;52.756;6.906;2023-01-15T00:40:26;6.30;99.90
52211;DHT22;38179;52.756;6.906;2023-01-15T00:42:52;6.30;99.90
52211;DHT22;38179;52.756;6.906;2023-01-15T00:45:17;6.30;99.90
52211;DHT22;38179;52.756;6.906;2023-01-15T00:47:44;6.30;99.90
52211;DHT22;38179;52.756;6.906;2023-01-15T00:50:14;6.30;99.90
52211;DHT22;38179;52.756;6.906;2023-01-15T00:52:41;6.30;99.90
52211;DHT22;38179;52.756;6.906;2023-01-15T00:55:07;6.30;99.90
52211;DHT22;38179;52.756;6.906;2023-01-15T00:57:33;6.30;99.90
52211;DHT22;38179;52.756;6.906;2023-01-15T00:59:59;6.30;99.90
52211;DHT22;38179;52.756;6.906;2023-01-15T01:02:25;6.30;99.90
52211;DHT22;38179;52.756;6.906;2023-01-15T01:04:51;6.30;99.90
52211;DHT22;38179;52.756;6.906;2023-01-15T01:07:17;6.30;99.90
52211;DHT22;38179;52.756;6.906;2023-01-15T01:09:43;6.30;99.90
52211;DHT22;38179;52.756;6.906;2023-01-15T01:12:09;6.30;99.90
52211;DHT22;38179;52.756;6.906;2023-01-15T01:14:36;6.30;99.90
52211;DHT22;38179;52.756;6.906;2023-01-15T01:17:02;6.20;99.90
52211;DHT22;38179;52.756;6.906;2023-01-15T01:19:28;6.30;99.90
52211;DHT22;38179;52.756;6.906;2023-01-15T01:21:54;6.30;99.90
52211;DHT22;38179;52.756;6.906;2023-01-15T01:24:22;6.30;99.90
52211;DHT22;38179;52.756;6.906;2023-01-15T01:26:49;6.30;99.90
52211;DHT22;38179;52.756;6.906;2023-01-15T01:29:19;6.20;99.90
52211;DHT22;38179;52.756;6.906;2023-01-15T01:31:46;6.20;99.90
52211;DHT22;38179;52.756;6.906;2023-01-15T01:34:14;6.20;99.90
52211;DHT22;38179;52.756;6.906;2023-01-15T01:36:42;6.30;99.90
52211;DHT22;38179;52.756;6.906;2023-01-15T01:39:18;6.20;99.90
52211;DHT22;38179;52.756;6.906;2023-01-15T01:41:45;6.20;99.90
52211;DHT22;38179;52.756;6.906;2023-01-15T01:47:06;6.20;99.90
52211;DHT22;38179;52.756;6.906;2023-01-15T01:49:35;6.20;99.90
52211;DHT22;38179;52.756;6.906;2023-01-15T01:52:07;6.20;99.90
52211;DHT22;38179;52.756;6.906;2023-01-15T01:54:35;6.20;99.90
52211;DHT22;38179;52.756;6.906;2023-01-15T01:57:03;6.20;99.90
52211;DHT22;38179;52.756;6.906;2023-01-15T01:59:30;6.20;99.90
52211;DHT22;38179;52.756;6.906;2023-01-15T02:01:57;6.20;99.90
52211;DHT22;38179;52.756;6.906;2023-01-15T02:04:26;6.20;99.90
52211;DHT22;38179;52.756;6.906;2023-01-15T02:06:53;6.20;99.90
52211;DHT22;38179;52.756;6.906;2023-01-15T02:09:20;6.20;99.90
52211;DHT22;38179;52.756;6.906;2023-01-15T02:11:46;6.20;99.90
52211;DHT22;38179;52.756;6.906;2023-01-15T02:14:21;6.20;99.90
52211;DHT22;38179;52.756;6.906;2023-01-15T02:17:11;6.20;99.90
52211;DHT22;38179;52.756;6.906;2023-01-15T02:22:35;6.20;99.90
52211;DHT22;38179;52.756;6.906;2023-01-15T02:25:28;6.20;99.90
52211;DHT22;38179;52.756;6.906;2023-01-15T02:28:21;6.20;99.90
52211;DHT22;38179;52.756;6.906;2023-01-15T02:30:55;6.20;99.90
52211;DHT22;38179;52.756;6.906;2023-01-15T02:33:46;6.20;99.90
52211;DHT22;38179;52.756;6.906;2023-01-15T02:36:14;6.20;99.90
52211;DHT22;38179;52.756;6.906;2023-01-15T02:38:46;6.20;99.90
52211;DHT22;38179;52.756;6.906;2023-01-15T02:41:14;6.20;99.90
52211;DHT22;38179;52.756;6.906;2023-01-15T02:43:50;6.20;99.90
52211;DHT22;38179;52.756;6.906;2023-01-15T02:46:17;6.20;99.90
52211;DHT22;38179;52.756;6.906;2023-01-15T02:48:49;6.20;99.90
52211;DHT22;38179;52.756;6.906;2023-01-15T02:51:19;6.20;99.90
52211;DHT22;38179;52.756;6.906;2023-01-15T02:53:47;6.10;99.90
52211;DHT22;38179;52.756;6.906;2023-01-15T02:56:19;6.10;99.90
52211;DHT22;38179;52.756;6.906;2023-01-15T02:58:52;6.10;99.90
52211;DHT22;38179;52.756;6.906;2023-01-15T03:01:25;6.20;99.90
52211;DHT22;38179;52.756;6.906;2023-01-15T03:04:12;6.20;99.90
52211;DHT22;38179;52.756;6.906;2023-01-15T03:09:08;6.20;99.90
52211;DHT22;38179;52.756;6.906;2023-01-15T03:11:39;6.10;99.90
52211;DHT22;38179;52.756;6.906;2023-01-15T03:14:18;6.10;99.90
52211;DHT22;38179;52.756;6.906;2023-01-15T03:16:58;6.10;99.90
52211;DHT22;38179;52.756;6.906;2023-01-15T03:19:33;6.10;99.90
52211;DHT22;38179;52.756;6.906;2023-01-15T03:22:11;6.10;99.90
52211;DHT22;38179;52.756;6.906;2023-01-15T03:24:47;6.10;99.90
52211;DHT22;38179;52.756;6.906;2023-01-15T03:27:14;6.10;99.90
52211;DHT22;38179;52.756;6.906;2023-01-15T03:29:50;6.10;99.90
52211;DHT22;38179;52.756;6.906;2023-01-15T03:32:17;6.10;99.90
52211;DHT22;38179;52.756;6.906;2023-01-15T03:34:51;6.00;99.90
52211;DHT22;38179;52.756;6.906;2023-01-15T03:37:18;6.00;99.90
52211;DHT22;38179;52.756;6.906;2023-01-15T03:39:46;6.10;99.90
52211;DHT22;38179;52.756;6.906;2023-01-15T03:50:31;6.00;99.90
52211;DHT22;38179;52.756;6.906;2023-01-15T03:58:18;6.10;99.90
52211;DHT22;38179;52.756;6.906;2023-01-15T04:00:49;6.00;99.90
52211;DHT22;38179;52.756;6.906;2023-01-15T04:03:18;6.00;99.90
52211;DHT22;38179;52.756;6.906;2023-01-15T04:05:46;6.00;99.90
52211;DHT22;38179;52.756;6.906;2023-01-15T04:08:13;6.00;99.90
52211;DHT22;38179;52.756;6.906;2023-01-15T04:10:57;6.00;99.90
52211;DHT22;38179;52.756;6.906;2023-01-15T04:13:23;6.00;99.90
52211;DHT22;38179;52.756;6.906;2023-01-15T04:15:49;6.00;99.90
52211;DHT22;38179;52.756;6.906;2023-01-15T04:18:15;6.00;99.90
52211;DHT22;38179;52.756;6.906;2023-01-15T04:20:41;6.00;99.90
52211;DHT22;38179;52.756;6.906;2023-01-15T04:23:08;6.00;99.90
52211;DHT22;38179;52.756;6.906;2023-01-15T04:25:34;6.00;99.90
52211;DHT22;38179;52.756;6.906;2023-01-15T04:28:00;6.00;99.90
52211;DHT22;38179;52.756;6.906;2023-01-15T04:30:26;6.00;99.90
52211;DHT22;38179;52.756;6.906;2023-01-15T04:32:52;6.00;99.90
52211;DHT22;38179;52.756;6.906;2023-01-15T04:35:18;5.90;99.90
52211;DHT22;38179;52.756;6.906;2023-01-15T04:37:45;5.90;99.90
52211;DHT22;38179;52.756;6.906;2023-01-15T04:40:11;5.90;99.90
52211;DHT22;38179;52.756;6.906;2023-01-15T04:42:56;5.90;99.90
52211;DHT22;38179;52.756;6.906;2023-01-15T04:45:42;5.90;99.90
52211;DHT22;38179;52.756;6.906;2023-01-15T04:48:08;5.90;99.90
52211;DHT22;38179;52.756;6.906;2023-01-15T04:50:34;5.90;99.90
52211;DHT22;38179;52.756;6.906;2023-01-15T04:53:00;5.90;99.90
52211;DHT22;38179;52.756;6.906;2023-01-15T04:55:26;5.90;99.90
52211;DHT22;38179;52.756;6.906;2023-01-15T04:57:52;5.90;99.90
52211;DHT22;38179;52.756;6.906;2023-01-15T05:00:18;5.90;99.90
52211;DHT22;38179;52.756;6.906;2023-01-15T05:02:44;5.90;99.90
52211;DHT22;38179;52.756;6.906;2023-01-15T05:05:10;5.90;99.90
52211;DHT22;38179;52.756;6.906;2023-01-15T05:07:35;5.90;99.90
52211;DHT22;38179;52.756;6.906;2023-01-15T05:10:01;5.80;99.90
52211;DHT22;38179;52.756;6.906;2023-01-15T05:12:27;5.90;99.90
52211;DHT22;38179;52.756;6.906;2023-01-15T05:14:53;5.90;99.90
52211;DHT22;38179;52.756;6.906;2023-01-15T05:17:19;5.90;99.90
52211;DHT22;38179;52.756;6.906;2023-01-15T05:19:45;5.90;99.90
52211;DHT22;38179;52.756;6.906;2023-01-15T05:22:11;5.80;99.90
52211;DHT22;38179;52.756;6.906;2023-01-15T05:24:37;5.80;99.90
52211;DHT22;38179;52.756;6.906;2023-01-15T05:27:02;5.80;99.90
52211;DHT22;38179;52.756;6.906;2023-01-15T05:29:30;5.80;99.90
52211;DHT22;38179;52.756;6.906;2023-01-15T05:31:56;5.80;99.90
52211;DHT22;38179;52.756;6.906;2023-01-15T05:34:22;5.80;99.90
52211;DHT22;38179;52.756;6.906;2023-01-15T05:36:48;5.80;99.90
52211;DHT22;38179;52.756;6.906;2023-01-15T05:39:14;5.80;99.90
52211;DHT22;38179;52.756;6.906;2023-01-15T05:41:40;5.80;99.90
52211;DHT22;38179;52.756;6.906;2023-01-15T05:44:20;5.80;99.90
52211;DHT22;38179;52.756;6.906;2023-01-15T05:46:47;5.80;99.90
52211;DHT22;38179;52.756;6.906;2023-01-15T05:49:16;5.80;99.90
52211;DHT22;38179;52.756;6.906;2023-01-15T05:51:42;5.70;99.90
52211;DHT22;38179;52.756;6.906;2023-01-15T05:54:15;5.70;99.90
52211;DHT22;38179;52.756;6.906;2023-01-15T05:56:42;5.70;99.90
52211;DHT22;38179;52.756;6.906;2023-01-15T05:59:08;5.70;99.90
52211;DHT22;38179;52.756;6.906;2023-01-15T06:01:34;5.70;99.90
52211;DHT22;38179;52.756;6.906;2023-01-15T06:04:01;5.70;99.90
52211;DHT22;38179;52.756;6.906;2023-01-15T06:06:28;5.70;99.90
52211;DHT22;38179;52.756;6.906;2023-01-15T06:08:54;5.70;99.90
52211;DHT22;38179;52.756;6.906;2023-01-15T06:11:20;5.70;99.90
52211;DHT22;38179;52.756;6.906;2023-01-15T06:13:46;5.60;99.90
52211;DHT22;38179;52.756;6.906;2023-01-15T06:16:12;5.70;99.90
52211;DHT22;38179;52.756;6.906;2023-01-15T06:18:39;5.60;99.90
52211;DHT22;38179;52.756;6.906;2023-01-15T06:21:06;5.60;99.90
52211;DHT22;38179;52.756;6.906;2023-01-15T06:23:33;5.60;99.90
52211;DHT22;38179;52.756;6.906;2023-01-15T06:26:03;5.60;99.90
52211;DHT22;38179;52.756;6.906;2023-01-15T06:28:29;5.60;99.90
52211;DHT22;38179;52.756;6.906;2023-01-15T06:30:55;5.50;99.90
52211;DHT22;38179;52.756;6.906;2023-01-15T06:33:21;5.50;99.90
52211;DHT22;38179;52.756;6.906;2023-01-15T06:35:47;5.50;99.90
52211;DHT22;38179;52.756;6.906;2023-01-15T06:38:12;5.50;99.90
52211;DHT22;38179;52.756;6.906;2023-01-15T06:40:38;5.50;99.90
52211;DHT22;38179;52.756;6.906;2023-01-15T06:43:04;5.40;99.90
52211;DHT22;38179;52.756;6.906;2023-01-15T06:45:49;5.40;99.90
52211;DHT22;38179;52.756;6.906;2023-01-15T06:48:33;5.40;99.90
52211;DHT22;38179;52.756;6.906;2023-01-15T06:50:59;5.40;99.90
52211;DHT22;38179;52.756;6.906;2023-01-15T06:53:25;5.40;99.90
52211;DHT22;38179;52.756;6.906;2023-01-15T06:55:51;5.40;99.90
52211;DHT22;38179;52.756;6.906;2023-01-15T06:58:17;5.30;99.90
52211;DHT22;38179;52.756;6.906;2023-01-15T07:00:46;5.30;99.90
52211;DHT22;38179;52.756;6.906;2023-01-15T07:03:19;5.30;99.90
52211;DHT22;38179;52.756;6.906;2023-01-15T07:05:45;5.30;99.90
52211;DHT22;38179;52.756;6.906;2023-01-15T07:08:11;5.30;99.90
52211;DHT22;38179;52.756;6.906;2023-01-15T07:10:36;5.30;99.90
52211;DHT22;38179;52.756;6.906;2023-01-15T07:13:02;5.30;99.90
52211;DHT22;38179;52.756;6.906;2023-01-15T07:15:28;5.30;99.90
52211;DHT22;38179;52.756;6.906;2023-01-15T07:17:58;5.30;99.90
52211;DHT22;38179;52.756;6.906;2023-01-15T07:20:24;5.30;99.90
52211;DHT22;38179;52.756;6.906;2023-01-15T07:22:51;5.20;99.90
52211;DHT22;38179;52.756;6.906;2023-01-15T07:25:17;5.30;99.90
52211;DHT22;38179;52.756;6.906;2023-01-15T07:27:45;5.20;99.90
52211;DHT22;38179;52.756;6.906;2023-01-15T07:30:12;5.20;99.90
52211;DHT22;38179;52.756;6.906;2023-01-15T07:32:38;5.20;99.90
52211;DHT22;38179;52.756;6.906;2023-01-15T07:35:05;5.20;99.90
52211;DHT22;38179;52.756;6.906;2023-01-15T07:37:30;5.20;99.90
52211;DHT22;38179;52.756;6.906;2023-01-15T07:39:56;5.20;99.90
52211;DHT22;38179;52.756;6.906;2023-01-15T07:42:22;5.10;99.90
52211;DHT22;38179;52.756;6.906;2023-01-15T07:45:08;5.10;99.90
52211;DHT22;38179;52.756;6.906;2023-01-15T07:47:53;5.10;99.90
52211;DHT22;38179;52.756;6.906;2023-01-15T07:50:37;5.10;99.90
52211;DHT22;38179;52.756;6.906;2023-01-15T07:53:03;5.00;99.90
52211;DHT22;38179;52.756;6.906;2023-01-15T07:55:29;5.00;99.90
52211;DHT22;38179;52.756;6.906;2023-01-15T07:57:55;5.10;99.90
52211;DHT22;38179;52.756;6.906;2023-01-15T08:00:23;5.00;99.90
52211;DHT22;38179;52.756;6.906;2023-01-15T08:02:50;5.00;99.90
52211;DHT22;38179;52.756;6.906;2023-01-15T08:05:16;5.00;99.90
52211;DHT22;38179;52.756;6.906;2023-01-15T08:07:42;5.00;99.90
52211;DHT22;38179;52.756;6.906;2023-01-15T08:10:10;5.00;99.90
52211;DHT22;38179;52.756;6.906;2023-01-15T08:12:36;5.00;99.90
52211;DHT22;38179;52.756;6.906;2023-01-15T08:15:21;5.00;99.90
52211;DHT22;38179;52.756;6.906;2023-01-15T08:17:49;5.00;99.90
52211;DHT22;38179;52.756;6.906;2023-01-15T08:20:18;5.10;99.90
52211;DHT22;38179;52.756;6.906;2023-01-15T08:22:44;5.10;99.90
52211;DHT22;38179;52.756;6.906;2023-01-15T08:25:16;5.10;99.90
52211;DHT22;38179;52.756;6.906;2023-01-15T08:27:43;5.10;99.90
52211;DHT22;38179;52.756;6.906;2023-01-15T08:30:18;5.10;99.90
52211;DHT22;38179;52.756;6.906;2023-01-15T08:32:44;5.10;99.90
52211;DHT22;38179;52.756;6.906;2023-01-15T08:35:10;5.20;99.90
52211;DHT22;38179;52.756;6.906;2023-01-15T08:37:38;5.10;99.90
52211;DHT22;38179;52.756;6.906;2023-01-15T08:40:04;5.20;99.90
52211;DHT22;38179;52.756;6.906;2023-01-15T08:42:30;5.20;99.90
52211;DHT22;38179;52.756;6.906;2023-01-15T08:44:56;5.20;99.90
52211;DHT22;38179;52.756;6.906;2023-01-15T08:47:22;5.20;99.90
52211;DHT22;38179;52.756;6.906;2023-01-15T08:49:48;5.20;99.90
52211;DHT22;38179;52.756;6.906;2023-01-15T08:52:14;5.20;99.90
52211;DHT22;38179;52.756;6.906;2023-01-15T08:54:40;5.30;99.90
52211;DHT22;38179;52.756;6.906;2023-01-15T08:57:06;5.30;99.90
52211;DHT22;38179;52.756;6.906;2023-01-15T08:59:37;5.30;99.90
52211;DHT22;38179;52.756;6.906;2023-01-15T09:02:03;5.30;99.90
52211;DHT22;38179;52.756;6.906;2023-01-15T09:04:29;5.30;99.90
52211;DHT22;38179;52.756;6.906;2023-01-15T09:06:54;5.40;99.90
52211;DHT22;38179;52.756;6.906;2023-01-15T09:09:20;5.40;99.90
52211;DHT22;38179;52.756;6.906;2023-01-15T09:11:46;5.30;99.90
52211;DHT22;38179;52.756;6.906;2023-01-15T09:14:14;5.20;99.90
52211;DHT22;38179;52.756;6.906;2023-01-15T09:16:40;5.20;99.90
52211;DHT22;38179;52.756;6.906;2023-01-15T09:19:06;5.10;99.90
52211;DHT22;38179;52.756;6.906;2023-01-15T09:21:33;5.00;99.90
52211;DHT22;38179;52.756;6.906;2023-01-15T09:23:59;5.00;99.90
52211;DHT22;38179;52.756;6.906;2023-01-15T09:26:47;4.90;99.90
52211;DHT22;38179;52.756;6.906;2023-01-15T09:35:09;4.40;99.90
52211;DHT22;38179;52.756;6.906;2023-01-15T09:37:35;4.00;99.90
52211;DHT22;38179;52.756;6.906;2023-01-15T09:40:01;3.40;99.90
52211;DHT22;38179;52.756;6.906;2023-01-15T09:42:38;3.30;99.90
52211;DHT22;38179;52.756;6.906;2023-01-15T09:45:25;3.20;99.90
52211;DHT22;38179;52.756;6.906;2023-01-15T09:53:47;3.20;99.90
52211;DHT22;38179;52.756;6.906;2023-01-15T09:56:27;3.20;99.90
52211;DHT22;38179;52.756;6.906;2023-01-15T09:58:56;3.20;99.90
52211;DHT22;38179;52.756;6.906;2023-01-15T10:01:33;3.30;99.90
52211;DHT22;38179;52.756;6.906;2023-01-15T10:06:49;3.50;99.90
52211;DHT22;38179;52.756;6.906;2023-01-15T10:09:26;3.60;99.90
52211;DHT22;38179;52.756;6.906;2023-01-15T10:12:00;3.80;99.90
52211;DHT22;38179;52.756;6.906;2023-01-15T10:17:51;3.90;99.90
52211;DHT22;38179;52.756;6.906;2023-01-15T10:20:56;3.90;99.90
52211;DHT22;38179;52.756;6.906;2023-01-15T10:26:04;4.00;99.90
52211;DHT22;38179;52.756;6.906;2023-01-15T10:28:59;4.10;99.90
52211;DHT22;38179;52.756;6.906;2023-01-15T10:37:41;4.30;99.90
52211;DHT22;38179;52.756;6.906;2023-01-15T10:40:30;4.30;99.90
52211;DHT22;38179;52.756;6.906;2023-01-15T10:45:26;4.30;99.90
52211;DHT22;38179;52.756;6.906;2023-01-15T10:47:58;4.40;99.90
52211;DHT22;38179;52.756;6.906;2023-01-15T10:50:26;4.30;99.90
52211;DHT22;38179;52.756;6.906;2023-01-15T10:55:36;4.40;99.90
52211;DHT22;38179;52.756;6.906;2023-01-15T10:58:24;4.40;99.90
52211;DHT22;38179;52.756;6.906;2023-01-15T11:01:11;4.50;99.90
52211;DHT22;38179;52.756;6.906;2023-01-15T11:03:43;4.60;99.90
52211;DHT22;38179;52.756;6.906;2023-01-15T11:06:17;4.70;99.90
52211;DHT22;38179;52.756;6.906;2023-01-15T11:08:50;4.80;99.90
52211;DHT22;38179;52.756;6.906;2023-01-15T11:11:31;4.90;99.90
52211;DHT22;38179;52.756;6.906;2023-01-15T11:14:16;5.00;99.90
52211;DHT22;38179;52.756;6.906;2023-01-15T11:17:13;5.10;99.90
52211;DHT22;38179;52.756;6.906;2023-01-15T11:19:57;5.20;99.90
52211;DHT22;38179;52.756;6.906;2023-01-15T11:22:23;5.30;99.90
52211;DHT22;38179;52.756;6.906;2023-01-15T11:30:28;5.20;99.90
52211;DHT22;38179;52.756;6.906;2023-01-15T11:49:54;5.10;99.90
52211;DHT22;38179;52.756;6.906;2023-01-15T12:00:54;5.40;99.90
52211;DHT22;38179;52.756;6.906;2023-01-15T12:03:27;5.60;99.90
52211;DHT22;38179;52.756;6.906;2023-01-15T12:06:03;5.70;99.90
52211;DHT22;38179;52.756;6.906;2023-01-15T12:16:34;5.90;99.90
52211;DHT22;38179;52.756;6.906;2023-01-15T12:24:38;6.00;99.90
52211;DHT22;38179;52.756;6.906;2023-01-15T12:36:49;6.30;99.90
52211;DHT22;38179;52.756;6.906;2023-01-15T12:39:08;6.30;99.90
52211;DHT22;38179;52.756;6.906;2023-01-15T12:41:41;6.20;99.90
52211;DHT22;38179;52.756;6.906;2023-01-15T12:47:25;6.10;99.90
52211;DHT22;38179;52.756;6.906;2023-01-15T12:50:03;6.20;99.90
52211;DHT22;38179;52.756;6.906;2023-01-15T12:52:36;6.10;99.90
52211;DHT22;38179;52.756;6.906;2023-01-15T12:55:25;6.10;99.90
52211;DHT22;38179;52.756;6.906;2023-01-15T12:57:56;6.10;99.90
52211;DHT22;38179;52.756;6.906;2023-01-15T13:05:28;5.80;99.90
52211;DHT22;38179;52.756;6.906;2023-01-15T13:08:03;5.80;99.90
52211;DHT22;38179;52.756;6.906;2023-01-15T13:10:33;5.80;99.90
52211;DHT22;38179;52.756;6.906;2023-01-15T13:13:22;5.80;99.90
52211;DHT22;38179;52.756;6.906;2023-01-15T13:59:45;6.20;99.90
52211;DHT22;38179;52.756;6.906;2023-01-15T14:04:56;6.30;99.90
52211;DHT22;38179;52.756;6.906;2023-01-15T14:07:35;6.30;99.90
52211;DHT22;38179;52.756;6.906;2023-01-15T14:15:39;6.10;99.90
52211;DHT22;38179;52.756;6.906;2023-01-15T14:18:19;6.10;99.90
52211;DHT22;38179;52.756;6.906;2023-01-15T14:30:02;6.90;99.90
52211;DHT22;38179;52.756;6.906;2023-01-15T14:35:13;5.90;99.90
52211;DHT22;38179;52.756;6.906;2023-01-15T14:37:50;5.90;99.90
52211;DHT22;38179;52.756;6.906;2023-01-15T14:40:31;5.80;99.90
52211;DHT22;38179;52.756;6.906;2023-01-15T14:46:23;5.60;99.90
52211;DHT22;38179;52.756;6.906;2023-01-15T14:48:51;5.40;99.90
52211;DHT22;38179;52.756;6.906;2023-01-15T15:30:17;4.70;99.90
52211;DHT22;38179;52.756;6.906;2023-01-15T15:32:45;4.60;99.90
52211;DHT22;38179;52.756;6.906;2023-01-15T15:35:27;4.70;99.90
52211;DHT22;38179;52.756;6.906;2023-01-15T15:37:54;4.70;99.90
52211;DHT22;38179;52.756;6.906;2023-01-15T15:40:24;4.70;99.90
52211;DHT22;38179;52.756;6.906;2023-01-15T15:43:11;4.70;99.90
52211;DHT22;38179;52.756;6.906;2023-01-15T15:45:57;4.70;99.90
52211;DHT22;38179;52.756;6.906;2023-01-15T15:48:43;4.70;99.90
52211;DHT22;38179;52.756;6.906;2023-01-15T15:54:22;4.70;99.90
52211;DHT22;38179;52.756;6.906;2023-01-15T15:57:16;4.70;99.90
52211;DHT22;38179;52.756;6.906;2023-01-15T16:10:38;4.80;99.90
52211;DHT22;38179;52.756;6.906;2023-01-15T16:13:05;4.80;99.90
52211;DHT22;38179;52.756;6.906;2023-01-15T16:15:37;4.80;99.90
52211;DHT22;38179;52.756;6.906;2023-01-15T16:18:04;4.80;99.90
52211;DHT22;38179;52.756;6.906;2023-01-15T16:20:31;4.80;99.90
52211;DHT22;38179;52.756;6.906;2023-01-15T16:22:59;4.80;99.90
52211;DHT22;38179;52.756;6.906;2023-01-15T16:25:34;4.80;99.90
52211;DHT22;38179;52.756;6.906;2023-01-15T16:28:02;4.90;99.90
52211;DHT22;38179;52.756;6.906;2023-01-15T16:30:29;4.90;99.90
52211;DHT22;38179;52.756;6.906;2023-01-15T16:33:01;4.90;99.90
52211;DHT22;38179;52.756;6.906;2023-01-15T16:35:33;4.90;99.90
52211;DHT22;38179;52.756;6.906;2023-01-15T17:13:38;4.90;99.90
52211;DHT22;38179;52.756;6.906;2023-01-15T17:38:08;4.90;99.90
52211;DHT22;38179;52.756;6.906;2023-01-15T17:40:38;4.90;99.90
52211;DHT22;38179;52.756;6.906;2023-01-15T17:43:05;4.80;99.90
52211;DHT22;38179;52.756;6.906;2023-01-15T17:45:32;4.80;99.90
52211;DHT22;38179;52.756;6.906;2023-01-15T17:47:58;4.80;99.90
52211;DHT22;38179;52.756;6.906;2023-01-15T17:50:26;4.80;99.90
52211;DHT22;38179;52.756;6.906;2023-01-15T17:52:53;4.70;99.90
52211;DHT22;38179;52.756;6.906;2023-01-15T17:55:21;4.70;99.90
52211;DHT22;38179;52.756;6.906;2023-01-15T17:58:11;4.70;99.90
52211;DHT22;38179;52.756;6.906;2023-01-15T18:00:55;4.70;99.90
52211;DHT22;38179;52.756;6.906;2023-01-15T18:03:46;4.70;99.90
52211;DHT22;38179;52.756;6.906;2023-01-15T18:06:31;4.70;99.90
52211;DHT22;38179;52.756;6.906;2023-01-15T18:08:59;4.70;99.90
52211;DHT22;38179;52.756;6.906;2023-01-15T18:11:26;4.70;99.90
52211;DHT22;38179;52.756;6.906;2023-01-15T18:13:52;4.60;99.90
52211;DHT22;38179;52.756;6.906;2023-01-15T18:16:20;4.60;99.90
52211;DHT22;38179;52.756;6.906;2023-01-15T18:18:46;4.60;99.90
52211;DHT22;38179;52.756;6.906;2023-01-15T18:21:12;4.60;99.90
52211;DHT22;38179;52.756;6.906;2023-01-15T18:23:39;4.60;99.90
52211;DHT22;38179;52.756;6.906;2023-01-15T18:26:06;4.60;99.90
52211;DHT22;38179;52.756;6.906;2023-01-15T18:28:34;4.60;99.90
52211;DHT22;38179;52.756;6.906;2023-01-15T18:31:01;4.60;99.90
52211;DHT22;38179;52.756;6.906;2023-01-15T18:33:27;4.50;99.90
52211;DHT22;38179;52.756;6.906;2023-01-15T18:36:05;4.50;99.90
52211;DHT22;38179;52.756;6.906;2023-01-15T18:38:36;4.50;99.90
52211;DHT22;38179;52.756;6.906;2023-01-15T18:41:22;4.50;99.90
52211;DHT22;38179;52.756;6.906;2023-01-15T18:44:14;4.50;99.90
52211;DHT22;38179;52.756;6.906;2023-01-15T18:47:05;4.50;99.90
52211;DHT22;38179;52.756;6.906;2023-01-15T18:49:34;4.50;99.90
52211;DHT22;38179;52.756;6.906;2023-01-15T18:52:00;4.50;99.90
52211;DHT22;38179;52.756;6.906;2023-01-15T18:54:45;4.50;99.90
52211;DHT22;38179;52.756;6.906;2023-01-15T18:57:11;4.40;99.90
52211;DHT22;38179;52.756;6.906;2023-01-15T18:59:37;4.50;99.90
52211;DHT22;38179;52.756;6.906;2023-01-15T19:02:03;4.40;99.90
52211;DHT22;38179;52.756;6.906;2023-01-15T19:04:29;4.40;99.90
52211;DHT22;38179;52.756;6.906;2023-01-15T19:06:55;4.40;99.90
52211;DHT22;38179;52.756;6.906;2023-01-15T19:09:21;4.40;99.90
52211;DHT22;38179;52.756;6.906;2023-01-15T19:11:51;4.40;99.90
52211;DHT22;38179;52.756;6.906;2023-01-15T19:14:18;4.40;99.90
52211;DHT22;38179;52.756;6.906;2023-01-15T19:17:03;4.30;99.90
52211;DHT22;38179;52.756;6.906;2023-01-15T19:19:47;4.30;99.90
52211;DHT22;38179;52.756;6.906;2023-01-15T19:22:13;4.30;99.90
52211;DHT22;38179;52.756;6.906;2023-01-15T20:25:12;4.40;99.90
52211;DHT22;38179;52.756;6.906;2023-01-15T20:27:39;4.40;99.90
52211;DHT22;38179;52.756;6.906;2023-01-15T20:30:09;4.40;99.90
52211;DHT22;38179;52.756;6.906;2023-01-15T20:32:37;4.40;99.90
52211;DHT22;38179;52.756;6.906;2023-01-15T20:35:08;4.40;99.90
52211;DHT22;38179;52.756;6.906;2023-01-15T20:37:34;4.50;99.90
52211;DHT22;38179;52.756;6.906;2023-01-15T20:40:00;4.50;99.90
52211;DHT22;38179;52.756;6.906;2023-01-15T20:42:26;4.50;99.90
52211;DHT22;38179;52.756;6.906;2023-01-15T20:45:11;4.50;99.90
52211;DHT22;38179;52.756;6.906;2023-01-15T20:47:39;4.50;99.90
52211;DHT22;38179;52.756;6.906;2023-01-15T20:50:27;4.50;99.90
52211;DHT22;38179;52.756;6.906;2023-01-15T20:52:53;4.50;99.90
52211;DHT22;38179;52.756;6.906;2023-01-15T20:55:28;4.50;99.90
52211;DHT22;38179;52.756;6.906;2023-01-15T20:57:59;4.50;99.90
52211;DHT22;38179;52.756;6.906;2023-01-15T21:00:25;4.50;99.90
52211;DHT22;38179;52.756;6.906;2023-01-15T21:02:51;4.50;99.90
52211;DHT22;38179;52.756;6.906;2023-01-15T21:05:20;4.60;99.90
52211;DHT22;38179;52.756;6.906;2023-01-15T21:07:46;4.60;99.90
52211;DHT22;38179;52.756;6.906;2023-01-15T21:10:15;4.60;99.90
52211;DHT22;38179;52.756;6.906;2023-01-15T21:12:41;4.50;99.90
52211;DHT22;38179;52.756;6.906;2023-01-15T21:15:08;4.50;99.90
52211;DHT22;38179;52.756;6.906;2023-01-15T21:17:35;4.60;99.90
52211;DHT22;38179;52.756;6.906;2023-01-15T21:20:03;4.60;99.90
52211;DHT22;38179;52.756;6.906;2023-01-15T21:22:30;4.50;99.90
52211;DHT22;38179;52.756;6.906;2023-01-15T21:24:56;4.50;99.90
52211;DHT22;38179;52.756;6.906;2023-01-15T21:27:22;4.40;99.90
52211;DHT22;38179;52.756;6.906;2023-01-15T21:29:48;4.50;99.90
52211;DHT22;38179;52.756;6.906;2023-01-15T21:32:15;4.40;99.90
52211;DHT22;38179;52.756;6.906;2023-01-15T21:34:41;4.40;99.90
52211;DHT22;38179;52.756;6.906;2023-01-15T21:37:07;4.40;99.90
52211;DHT22;38179;52.756;6.906;2023-01-15T21:39:33;4.30;99.90
52211;DHT22;38179;52.756;6.906;2023-01-15T21:41:59;4.30;99.90
52211;DHT22;38179;52.756;6.906;2023-01-15T21:44:45;4.30;99.90
52211;DHT22;38179;52.756;6.906;2023-01-15T21:47:13;4.30;99.90
52211;DHT22;38179;52.756;6.906;2023-01-15T21:49:40;4.30;99.90
52211;DHT22;38179;52.756;6.906;2023-01-15T21:52:09;4.30;99.90
52211;DHT22;38179;52.756;6.906;2023-01-15T21:54:35;4.30;99.90
52211;DHT22;38179;52.756;6.906;2023-01-15T21:57:01;4.20;99.90
52211;DHT22;38179;52.756;6.906;2023-01-15T21:59:27;4.20;99.90